createdAt,value
2023-04-24T00:02:03.957Z,8.67
2023-04-24T00:04:32.592Z,8.68
2023-04-24T00:07:00.640Z,8.71
2023-04-24T00:09:28.514Z,8.74
2023-04-24T00:11:56.731Z,8.73
2023-04-24T00:14:23.928Z,8.69
2023-04-24T00:16:51.121Z,8.68
2023-04-24T00:19:21.714Z,8.71
2023-04-24T00:21:50.600Z,8.71
2023-04-24T00:24:18.782Z,8.68
2023-04-24T00:26:45.824Z,8.69
2023-04-24T00:29:13.891Z,8.70
2023-04-24T00:31:41.011Z,8.74
2023-04-24T00:34:08.293Z,8.78
2023-04-24T00:36:35.852Z,8.77
2023-04-24T00:39:03.106Z,8.74
2023-04-24T00:41:30.473Z,8.73
2023-04-24T00:43:57.624Z,8.73
2023-04-24T00:46:25.429Z,8.70
2023-04-24T00:48:54.267Z,8.62
2023-04-24T00:51:21.619Z,8.54
2023-04-24T00:53:48.771Z,8.48
2023-04-24T00:56:16.311Z,8.44
2023-04-24T00:58:43.990Z,8.43
2023-04-24T01:01:12.284Z,8.35
2023-04-24T01:03:39.822Z,8.39
2023-04-24T01:06:07.690Z,8.47
2023-04-24T01:08:35.359Z,8.53
2023-04-24T01:11:04.878Z,8.62
2023-04-24T01:13:32.631Z,8.71
2023-04-24T01:16:00.986Z,8.75
2023-04-24T01:18:28.418Z,8.75
2023-04-24T01:20:58.186Z,8.75
2023-04-24T01:23:25.528Z,8.78
2023-04-24T01:25:52.674Z,8.79
2023-04-24T01:28:20.335Z,8.79
2023-04-24T01:30:47.587Z,8.82
2023-04-24T01:33:14.941Z,8.84
2023-04-24T01:35:42.213Z,8.83
2023-04-24T01:38:09.753Z,8.81
2023-04-24T01:40:37.220Z,8.83
2023-04-24T01:43:04.256Z,8.81
2023-04-24T01:45:31.786Z,8.76
2023-04-24T01:47:59.331Z,8.72
2023-04-24T01:50:26.623Z,8.66
2023-04-24T01:52:54.088Z,8.69
2023-04-24T01:55:21.233Z,8.70
2023-04-24T01:57:48.504Z,8.67
2023-04-24T02:00:15.772Z,8.76
2023-04-24T02:02:45.662Z,8.88
2023-04-24T02:05:14.862Z,8.97
2023-04-24T02:07:42.632Z,9.00
2023-04-24T02:10:10.600Z,9.00
2023-04-24T02:12:43.362Z,9.01
2023-04-24T02:15:11.439Z,9.01
2023-04-24T02:17:38.914Z,9.00
2023-04-24T02:20:07.712Z,8.99
2023-04-24T02:22:35.449Z,9.00
2023-04-24T02:25:02.694Z,9.04
2023-04-24T02:27:30.869Z,9.09
2023-04-24T02:29:58.139Z,9.14
2023-04-24T02:32:25.798Z,9.16
2023-04-24T02:34:53.059Z,9.15
2023-04-24T02:37:20.390Z,9.17
2023-04-24T02:39:47.680Z,9.17
2023-04-24T02:42:15.915Z,9.14
2023-04-24T02:44:43.373Z,9.10
2023-04-24T02:47:10.519Z,9.00
2023-04-24T02:49:37.771Z,8.96
2023-04-24T02:52:05.024Z,9.00
2023-04-24T02:54:32.307Z,9.10
2023-04-24T02:56:59.540Z,9.21
2023-04-24T02:59:27.807Z,9.27
2023-04-24T03:01:55.264Z,9.34
2023-04-24T03:04:23.198Z,9.43
2023-04-24T03:06:53.347Z,9.47
2023-04-24T03:09:24.228Z,9.53
2023-04-24T03:11:51.438Z,9.55
2023-04-24T03:14:19.422Z,9.56
2023-04-24T03:16:46.655Z,9.53
2023-04-24T03:19:13.841Z,9.47
2023-04-24T03:21:54.167Z,9.41
2023-04-24T03:24:21.324Z,9.34
2023-04-24T03:26:49.905Z,9.38
2023-04-24T03:29:30.306Z,9.42
2023-04-24T03:31:58.579Z,9.44
2023-04-24T03:34:26.403Z,9.43
2023-04-24T03:36:53.962Z,9.42
2023-04-24T03:39:22.019Z,9.39
2023-04-24T03:41:55.208Z,9.38
2023-04-24T03:44:27.919Z,9.39
2023-04-24T03:46:55.775Z,9.35
2023-04-24T03:49:23.948Z,9.31
2023-04-24T03:51:53.173Z,9.28
2023-04-24T03:54:23.500Z,9.25
2023-04-24T03:56:51.651Z,9.29
2023-04-24T03:59:18.932Z,9.34
2023-04-24T04:01:49.276Z,9.39
2023-04-24T04:04:17.971Z,9.42
2023-04-24T04:06:47.115Z,9.47
2023-04-24T04:09:14.557Z,9.50
2023-04-24T04:11:41.890Z,9.55
2023-04-24T04:14:09.484Z,9.60
2023-04-24T04:16:40.235Z,9.62
2023-04-24T04:19:08.065Z,9.62
2023-04-24T04:21:35.991Z,9.62
2023-04-24T04:24:14.757Z,9.58
2023-04-24T04:26:47.743Z,9.59
2023-04-24T04:29:23.254Z,9.63
2023-04-24T04:31:51.297Z,9.67
2023-04-24T04:34:20.150Z,9.70
2023-04-24T04:36:47.418Z,9.74
2023-04-24T04:39:35.545Z,9.83
2023-04-24T04:42:07.318Z,9.93
2023-04-24T04:44:40.390Z,10.03
2023-04-24T04:47:09.487Z,10.11
2023-04-24T04:49:42.047Z,10.19
2023-04-24T04:52:14.169Z,10.29
2023-04-24T04:54:41.802Z,10.39
2023-04-24T04:57:09.657Z,10.45
2023-04-24T04:59:37.767Z,10.52
2023-04-24T05:02:07.969Z,10.62
2023-04-24T05:04:36.849Z,10.69
2023-04-24T05:07:04.541Z,10.76
2023-04-24T05:09:33.873Z,10.87
2023-04-24T05:12:04.438Z,10.98
2023-04-24T05:14:34.244Z,11.11
2023-04-24T05:17:01.685Z,11.25
2023-04-24T05:19:29.421Z,11.38
2023-04-24T05:21:56.622Z,11.53
2023-04-24T05:24:24.298Z,11.70
2023-04-24T05:27:13.221Z,11.87
2023-04-24T05:29:41.723Z,12.08
2023-04-24T05:32:10.004Z,12.31
2023-04-24T05:34:37.400Z,12.54
2023-04-24T05:37:08.740Z,12.76
2023-04-24T05:39:37.779Z,12.99
2023-04-24T05:42:05.562Z,13.18
2023-04-24T05:44:32.742Z,13.34
2023-04-24T05:47:02.435Z,13.47
2023-04-24T05:49:29.981Z,13.61
2023-04-24T05:58:06.294Z,15.02
2023-04-24T06:00:35.798Z,15.47
2023-04-24T06:03:05.727Z,15.81
2023-04-24T06:05:33.227Z,16.12
2023-04-24T06:08:00.522Z,16.51
2023-04-24T06:10:33.005Z,16.95
2023-04-24T06:13:01.912Z,17.33
2023-04-24T06:15:31.906Z,17.74
2023-04-24T06:18:04.845Z,18.23
2023-04-24T06:20:32.205Z,18.68
2023-04-24T06:23:00.541Z,18.96
2023-04-24T06:25:28.794Z,19.25
2023-04-24T06:27:57.998Z,19.62
2023-04-24T06:30:25.373Z,19.92
2023-04-24T06:32:52.771Z,20.19
2023-04-24T06:35:21.596Z,20.61
2023-04-24T06:37:48.936Z,20.86
2023-04-24T06:40:16.206Z,21.08
2023-04-24T06:42:43.867Z,21.27
2023-04-24T06:45:11.925Z,21.45
2023-04-24T06:47:39.494Z,21.36
2023-04-24T06:50:08.233Z,21.41
2023-04-24T06:52:35.740Z,21.60
2023-04-24T06:55:05.499Z,21.84
2023-04-24T06:57:35.049Z,21.94
2023-04-24T07:00:02.975Z,22.06
2023-04-24T07:02:30.920Z,22.11
2023-04-24T07:04:59.802Z,22.16
2023-04-24T07:07:30.029Z,22.52
2023-04-24T07:09:58.932Z,22.82
2023-04-24T07:12:26.557Z,23.06
2023-04-24T07:14:53.994Z,23.10
2023-04-24T07:17:21.607Z,23.11
2023-04-24T07:19:48.725Z,23.25
2023-04-24T07:22:18.152Z,23.63
2023-04-24T07:24:45.795Z,23.84
2023-04-24T07:27:13.443Z,23.88
2023-04-24T07:29:41.768Z,23.52
2023-04-24T07:32:10.400Z,23.31
2023-04-24T07:34:37.966Z,23.57
2023-04-24T07:37:05.131Z,23.66
2023-04-24T07:39:33.294Z,23.65
2023-04-24T07:42:00.637Z,23.69
2023-04-24T07:44:27.934Z,23.82
2023-04-24T07:46:55.255Z,24.00
2023-04-24T07:49:22.592Z,24.07
2023-04-24T07:51:50.684Z,24.09
2023-04-24T07:54:17.923Z,24.13
2023-04-24T07:56:45.077Z,24.05
2023-04-24T07:59:12.435Z,23.88
2023-04-24T08:01:39.785Z,23.72
2023-04-24T08:04:07.278Z,23.67
2023-04-24T08:06:35.098Z,23.22
2023-04-24T08:09:02.354Z,22.71
2023-04-24T08:11:29.700Z,22.44
2023-04-24T08:13:57.359Z,21.92
2023-04-24T08:16:25.688Z,21.51
2023-04-24T08:18:54.450Z,21.44
2023-04-24T08:21:22.400Z,21.39
2023-04-24T08:23:49.763Z,21.33
2023-04-24T08:26:16.906Z,21.37
2023-04-24T08:28:44.075Z,21.34
2023-04-24T08:31:11.474Z,21.16
2023-04-24T08:33:38.672Z,20.89
2023-04-24T08:36:06.559Z,20.59
2023-04-24T08:38:34.082Z,20.33
2023-04-24T08:41:02.157Z,20.10
2023-04-24T08:43:29.411Z,19.70
2023-04-24T08:45:58.887Z,19.51
2023-04-24T08:48:31.310Z,19.39
2023-04-24T08:51:00.214Z,19.25
2023-04-24T08:53:27.653Z,19.27
2023-04-24T08:55:56.672Z,19.39
2023-04-24T08:58:28.718Z,19.43
2023-04-24T09:00:56.862Z,19.42
2023-04-24T09:03:25.581Z,19.31
2023-04-24T09:05:53.123Z,19.19
2023-04-24T09:08:20.767Z,19.07
2023-04-24T09:10:50.562Z,18.95
2023-04-24T09:13:20.345Z,18.90
2023-04-24T09:15:48.195Z,18.89
2023-04-24T09:18:15.912Z,18.91
2023-04-24T09:21:07.853Z,18.93
2023-04-24T09:23:36.358Z,18.94
2023-04-24T09:26:08.408Z,18.85
2023-04-24T09:28:37.823Z,18.87
2023-04-24T09:31:06.181Z,18.82
2023-04-24T09:33:33.658Z,18.68
2023-04-24T09:36:01.697Z,18.56
2023-04-24T09:38:36.329Z,18.49
2023-04-24T09:41:04.929Z,18.44
2023-04-24T09:43:32.307Z,18.43
2023-04-24T09:46:00.419Z,18.41
2023-04-24T09:48:37.870Z,18.37
2023-04-24T09:51:08.146Z,18.29
2023-04-24T09:53:35.260Z,18.22
2023-04-24T09:56:13.584Z,18.26
2023-04-24T09:58:40.671Z,18.29
2023-04-24T10:01:07.771Z,18.34
2023-04-24T10:03:35.152Z,18.37
2023-04-24T10:06:02.957Z,18.35
2023-04-24T10:08:37.095Z,18.32
2023-04-24T10:11:04.251Z,18.36
2023-04-24T10:13:31.355Z,18.38
2023-04-24T10:15:58.605Z,18.47
2023-04-24T10:18:26.013Z,18.52
2023-04-24T10:20:53.136Z,18.53
2023-04-24T10:23:20.445Z,18.53
2023-04-24T10:25:47.720Z,18.53
2023-04-24T10:28:15.508Z,18.49
2023-04-24T10:30:43.843Z,18.37
2023-04-24T10:33:11.367Z,18.21
2023-04-24T10:35:46.971Z,18.03
2023-04-24T10:38:14.748Z,17.89
2023-04-24T10:40:42.438Z,17.83
2023-04-24T10:43:12.064Z,17.84
2023-04-24T10:45:39.767Z,17.87
2023-04-24T10:48:12.435Z,17.92
2023-04-24T10:50:54.964Z,17.94
2023-04-24T10:53:27.995Z,17.93
2023-04-24T10:56:08.616Z,17.92
2023-04-24T10:58:41.401Z,17.91
2023-04-24T11:01:08.670Z,17.87
2023-04-24T11:03:36.541Z,17.88
2023-04-24T11:06:09.063Z,17.87
2023-04-24T11:08:46.189Z,17.88
2023-04-24T11:11:17.893Z,17.83
2023-04-24T11:13:57.083Z,17.75
2023-04-24T11:16:24.766Z,17.69
2023-04-24T11:19:05.293Z,17.69
2023-04-24T11:22:04.072Z,17.68
2023-04-24T11:24:39.262Z,17.55
2023-04-24T11:27:19.266Z,17.46
2023-04-24T11:29:46.526Z,17.41
2023-04-24T11:32:24.643Z,17.37
2023-04-24T11:34:56.935Z,17.35
2023-04-24T11:37:29.993Z,17.37
2023-04-24T11:39:58.742Z,17.38
2023-04-24T11:42:26.651Z,17.36
2023-04-24T11:44:54.609Z,17.31
2023-04-24T11:47:22.188Z,17.28
2023-04-24T11:49:51.677Z,17.29
2023-04-24T11:52:19.124Z,17.29
2023-04-24T11:54:51.298Z,17.30
2023-04-24T11:57:22.846Z,17.30
2023-04-24T11:59:50.956Z,17.31
2023-04-24T12:02:28.468Z,17.33
2023-04-24T12:04:56.364Z,17.35
2023-04-24T12:07:24.322Z,17.39
2023-04-24T12:09:59.300Z,17.41
2023-04-24T12:12:29.706Z,17.46
2023-04-24T12:14:58.278Z,17.51
2023-04-24T12:17:30.439Z,17.55
2023-04-24T12:20:08.355Z,17.56
2023-04-24T12:22:49.291Z,17.58
2023-04-24T12:25:17.723Z,17.58
2023-04-24T12:27:45.574Z,17.61
2023-04-24T12:30:16.968Z,17.66
2023-04-24T12:32:50.794Z,17.75
2023-04-24T12:35:22.090Z,17.81
2023-04-24T12:37:49.204Z,17.83
2023-04-24T12:40:16.956Z,17.86
2023-04-24T12:42:45.793Z,17.94
2023-04-24T12:45:15.574Z,18.04
2023-04-24T12:47:43.229Z,18.12
2023-04-24T12:50:11.731Z,18.19
2023-04-24T12:52:38.987Z,18.21
2023-04-24T12:55:09.193Z,18.21
2023-04-24T12:57:37.700Z,18.18
2023-04-24T13:00:07.875Z,18.12
2023-04-24T13:02:35.265Z,18.05
2023-04-24T13:05:02.794Z,17.96
2023-04-24T13:07:30.070Z,17.86
2023-04-24T13:09:57.163Z,17.78
2023-04-24T13:12:25.160Z,17.69
2023-04-24T13:14:52.336Z,17.61
2023-04-24T13:17:19.661Z,17.56
2023-04-24T13:19:47.318Z,17.51
2023-04-24T13:22:14.629Z,17.47
2023-04-24T13:24:42.790Z,17.43
2023-04-24T13:27:10.338Z,17.39
2023-04-24T13:29:38.091Z,17.36
2023-04-24T13:32:05.294Z,17.33
2023-04-24T13:34:32.630Z,17.31
2023-04-24T13:37:00.254Z,17.27
2023-04-24T13:39:27.632Z,17.23
2023-04-24T13:41:55.305Z,17.18
2023-04-24T13:44:22.638Z,17.15
2023-04-24T13:46:50.749Z,17.14
2023-04-24T13:49:18.558Z,17.14
2023-04-24T13:51:46.843Z,17.16
2023-04-24T13:54:14.257Z,17.19
2023-04-24T13:56:42.057Z,17.23
2023-04-24T13:59:09.968Z,17.28
2023-04-24T14:01:37.162Z,17.33
2023-04-24T14:04:04.510Z,17.36
2023-04-24T14:06:32.368Z,17.38
2023-04-24T14:08:59.518Z,17.37
2023-04-24T14:11:26.791Z,17.37
2023-04-24T14:13:54.035Z,17.37
2023-04-24T14:16:21.199Z,17.36
2023-04-24T14:18:48.380Z,17.35
2023-04-24T14:21:15.627Z,17.36
2023-04-24T14:23:43.039Z,17.35
2023-04-24T14:26:10.447Z,17.34
2023-04-24T14:28:37.587Z,17.33
2023-04-24T14:31:04.785Z,17.31
2023-04-24T14:33:32.163Z,17.27
2023-04-24T14:35:59.783Z,17.23
2023-04-24T14:38:27.210Z,17.19
2023-04-24T14:43:24.633Z,17.12
2023-04-24T14:45:52.196Z,17.06
2023-04-24T14:48:19.909Z,17.02
2023-04-24T14:50:47.484Z,16.97
2023-04-24T14:53:15.602Z,16.94
2023-04-24T14:55:42.757Z,16.89
2023-04-24T14:58:10.092Z,16.85
2023-04-24T15:00:37.349Z,16.80
2023-04-24T15:03:05.102Z,16.77
2023-04-24T15:05:32.729Z,16.73
2023-04-24T15:08:00.170Z,16.69
2023-04-24T15:10:27.675Z,16.64
2023-04-24T15:12:55.393Z,16.60
2023-04-24T15:15:23.261Z,16.57
2023-04-24T15:17:51.288Z,16.53
2023-04-24T15:20:19.310Z,16.50
2023-04-24T15:22:47.173Z,16.46
2023-04-24T15:25:15.036Z,16.42
2023-04-24T15:27:43.776Z,16.38
2023-04-24T15:30:11.702Z,16.35
2023-04-24T15:32:39.333Z,16.32
2023-04-24T15:35:09.111Z,16.30
2023-04-24T15:37:39.210Z,16.28
2023-04-24T15:40:08.927Z,16.27
2023-04-24T15:42:36.966Z,16.25
2023-04-24T15:45:05.152Z,16.22
2023-04-24T15:47:33.529Z,16.21
2023-04-24T15:50:00.819Z,16.19
2023-04-24T15:52:28.506Z,16.17
2023-04-24T15:54:55.883Z,16.15
2023-04-24T15:57:23.527Z,16.14
2023-04-24T15:59:51.253Z,16.11
2023-04-24T16:02:21.478Z,16.09
2023-04-24T16:04:50.347Z,16.08
2023-04-24T16:07:18.483Z,16.07
2023-04-24T16:09:45.920Z,16.05
2023-04-24T16:12:13.577Z,16.02
2023-04-24T16:14:42.589Z,15.99
2023-04-24T16:17:13.003Z,15.96
2023-04-24T16:19:43.164Z,15.92
2023-04-24T16:22:13.903Z,15.85
2023-04-24T16:24:44.967Z,15.75
2023-04-24T16:27:16.501Z,15.62
2023-04-24T16:29:49.148Z,15.51
2023-04-24T16:32:21.189Z,15.41
2023-04-24T16:34:52.931Z,15.34
2023-04-24T16:37:22.506Z,15.26
2023-04-24T16:39:51.995Z,15.18
2023-04-24T16:42:23.058Z,15.07
2023-04-24T16:44:53.984Z,14.98
2023-04-24T16:47:25.245Z,14.88
2023-04-24T16:49:56.041Z,14.81
2023-04-24T16:52:27.008Z,14.75
2023-04-24T16:54:57.487Z,14.69
2023-04-24T16:57:27.961Z,14.64
2023-04-24T16:59:59.155Z,14.58
2023-04-24T17:02:29.622Z,14.52
2023-04-24T17:04:59.159Z,14.45
2023-04-24T17:07:29.970Z,14.37
2023-04-24T17:10:04.256Z,14.31
2023-04-24T17:18:42.262Z,14.18
2023-04-24T17:21:09.583Z,14.12
2023-04-24T17:23:38.372Z,14.10
2023-04-24T17:26:06.119Z,14.08
2023-04-24T17:28:33.725Z,14.04
2023-04-24T17:31:00.880Z,14.00
2023-04-24T17:33:28.827Z,13.93
2023-04-24T17:35:59.152Z,13.88
2023-04-24T17:38:26.490Z,13.83
2023-04-24T17:40:54.237Z,13.78
2023-04-24T17:43:21.395Z,13.73
2023-04-24T17:45:50.672Z,13.63
2023-04-24T17:48:19.092Z,13.53
2023-04-24T17:50:46.642Z,13.43
2023-04-24T17:53:14.092Z,13.36
2023-04-24T17:55:43.917Z,13.29
2023-04-24T17:58:13.770Z,13.25
2023-04-24T18:00:41.734Z,13.25
2023-04-24T18:03:11.489Z,13.25
2023-04-24T18:05:39.426Z,13.23
2023-04-24T18:08:06.919Z,13.19
2023-04-24T18:10:37.056Z,13.17
2023-04-24T18:13:05.010Z,13.16
2023-04-24T18:15:32.673Z,13.13
2023-04-24T18:18:00.254Z,13.11
2023-04-24T18:20:27.785Z,13.12
2023-04-24T18:22:55.149Z,13.13
2023-04-24T18:25:27.118Z,13.14
2023-04-24T18:27:55.479Z,13.13
2023-04-24T18:30:25.570Z,13.10
2023-04-24T18:32:53.592Z,13.07
2023-04-24T18:35:21.382Z,13.04
2023-04-24T18:37:49.127Z,13.00
2023-04-24T18:40:16.864Z,12.96
2023-04-24T18:42:44.227Z,12.91
2023-04-24T18:45:14.620Z,12.85
2023-04-24T18:47:43.776Z,12.79
2023-04-24T18:50:12.764Z,12.77
2023-04-24T18:52:42.034Z,12.77
2023-04-24T18:55:10.207Z,12.77
2023-04-24T18:57:37.368Z,12.72
2023-04-24T19:00:06.340Z,12.67
2023-04-24T19:02:34.844Z,12.62
2023-04-24T19:05:03.131Z,12.57
2023-04-24T19:07:30.461Z,12.56
2023-04-24T19:09:57.556Z,12.57
2023-04-24T19:12:24.799Z,12.59
2023-04-24T19:14:52.762Z,12.61
2023-04-24T19:17:24.530Z,12.63
2023-04-24T19:19:52.350Z,12.63
2023-04-24T19:22:20.626Z,12.66
2023-04-24T19:24:47.845Z,12.70
2023-04-24T19:27:15.100Z,12.74
2023-04-24T19:29:42.255Z,12.75
2023-04-24T19:32:09.509Z,12.74
2023-04-24T19:34:38.377Z,12.72
2023-04-24T19:37:07.988Z,12.70
2023-04-24T19:39:35.067Z,12.69
2023-04-24T19:42:05.717Z,12.69
2023-04-24T19:44:34.781Z,12.70
2023-04-24T19:47:01.973Z,12.73
2023-04-24T19:49:30.360Z,12.76
2023-04-24T19:51:57.435Z,12.76
2023-04-24T19:54:25.297Z,12.74
2023-04-24T19:56:52.301Z,12.73
2023-04-24T19:59:19.439Z,12.70
2023-04-24T20:01:47.121Z,12.68
2023-04-24T20:04:14.555Z,12.69
2023-04-24T20:06:41.892Z,12.69
2023-04-24T20:09:08.996Z,12.68
2023-04-24T20:11:36.733Z,12.66
2023-04-24T20:14:03.958Z,12.64
2023-04-24T20:16:31.455Z,12.62
2023-04-24T20:18:58.963Z,12.62
2023-04-24T20:21:26.857Z,12.64
2023-04-24T20:23:54.068Z,12.69
2023-04-24T20:26:21.650Z,12.71
2023-04-24T20:28:50.204Z,12.72
2023-04-24T20:31:17.892Z,12.71
2023-04-24T20:33:45.688Z,12.69
2023-04-24T20:36:12.776Z,12.67
2023-04-24T20:38:39.861Z,12.65
2023-04-24T20:41:08.995Z,12.66
2023-04-24T20:43:36.571Z,12.68
2023-04-24T20:46:04.298Z,12.70
2023-04-24T20:48:31.598Z,12.67
2023-04-24T20:51:02.064Z,12.65
2023-04-24T20:53:29.157Z,12.65
2023-04-24T20:55:56.309Z,12.66
2023-04-24T20:58:24.010Z,12.69
2023-04-24T21:00:53.008Z,12.71
2023-04-24T21:03:20.258Z,12.73
2023-04-24T21:05:47.527Z,12.72
2023-04-24T21:08:14.659Z,12.70
2023-04-24T21:10:41.927Z,12.69
2023-04-24T21:13:09.184Z,12.69
2023-04-24T21:15:36.794Z,12.69
2023-04-24T21:18:04.279Z,12.58
2023-04-24T21:20:31.344Z,12.37
2023-04-24T21:26:40.660Z,12.05
2023-04-24T21:29:07.713Z,12.04
2023-04-24T21:31:35.381Z,12.02
2023-04-24T21:34:04.072Z,11.93
2023-04-24T21:36:32.716Z,11.82
2023-04-24T21:39:00.311Z,11.75
2023-04-24T21:41:27.454Z,11.60
2023-04-24T21:43:55.071Z,11.51
2023-04-24T21:46:22.667Z,11.42
2023-04-24T21:48:50.143Z,11.34
2023-04-24T21:51:17.686Z,11.29
2023-04-24T21:53:45.071Z,11.25
2023-04-24T21:56:12.704Z,11.24
2023-04-24T21:58:40.064Z,11.15
2023-04-24T22:01:07.356Z,11.11
2023-04-24T22:03:34.847Z,10.99
2023-04-24T22:06:02.348Z,10.94
2023-04-24T22:08:29.683Z,10.98
2023-04-24T22:10:56.869Z,11.01
2023-04-24T22:13:24.400Z,11.02
2023-04-24T22:15:51.782Z,11.07
2023-04-24T22:18:19.235Z,11.10
2023-04-24T22:20:46.892Z,11.12
2023-04-24T22:23:14.227Z,11.12
2023-04-24T22:25:41.678Z,11.14
2023-04-24T22:28:09.033Z,11.16
2023-04-24T22:30:37.328Z,11.18
2023-04-24T22:33:05.098Z,11.20
2023-04-24T22:35:32.629Z,11.21
2023-04-24T22:38:00.185Z,11.26
2023-04-24T22:40:27.358Z,11.27
2023-04-24T22:42:54.588Z,11.25
2023-04-24T22:45:24.407Z,11.21
2023-04-24T22:47:52.195Z,11.18
2023-04-24T22:50:19.951Z,11.13
2023-04-24T22:52:47.287Z,11.09
2023-04-24T22:55:14.535Z,11.06
2023-04-24T22:57:42.028Z,11.07
2023-04-24T23:00:12.013Z,11.07
2023-04-24T23:02:39.462Z,11.03
2023-04-24T23:05:07.331Z,11.01
2023-04-24T23:07:35.404Z,11.00
2023-04-24T23:10:03.528Z,11.01
2023-04-24T23:12:31.137Z,11.02
2023-04-24T23:14:58.698Z,10.99
2023-04-24T23:17:25.862Z,10.97
2023-04-24T23:19:53.000Z,10.95
2023-04-24T23:22:20.248Z,10.89
2023-04-24T23:24:47.494Z,10.87
2023-04-24T23:27:14.757Z,10.86
2023-04-24T23:29:42.105Z,10.85
2023-04-24T23:32:09.399Z,10.81
2023-04-24T23:34:39.067Z,10.77
2023-04-24T23:37:06.940Z,10.74
2023-04-24T23:39:34.601Z,10.72
2023-04-24T23:42:02.472Z,10.71
2023-04-24T23:44:30.043Z,10.69
2023-04-24T23:46:59.326Z,10.65
2023-04-24T23:49:26.984Z,10.63
2023-04-24T23:51:54.237Z,10.65
2023-04-24T23:54:21.826Z,10.68
2023-04-24T23:56:49.355Z,10.65
2023-04-24T23:59:20.189Z,10.60
